BGKK

Kulusuk Airport

Kulusuk, Greenland
METAR BGKK 220850Z AUTO 07023G34KT 7000NDV -FZRA BKN033/// BKN067/// BKN130/// M01/M07 Q1003
Observed Flight Rules
Jan-22 @ 08:50 UTC (54 minutes ago)
Wind Clouds Conditions
70° at 23 knots
 Gusting to 34 knots
  • Broken at 3,300' AGL
  • Broken at 6,700' AGL
  • Broken at 13,000' AGL
  • Light Freezing
  • Light Rain
Temperatures Readings
Current -1°C / 30°F
Dewpoint -7°C / 19°F
Humidity 64%
Altimeter 29.62" Hg
Pressure 1003 hPa
Elevation 34
METAR BGKK 220850Z AUTO 07023G34KT 7000NDV -FZRA BKN033/// BKN067/// BKN130/// M01/M07 Q1003
Observed Flight Rules
Jan-22 @ 08:50 UTC
(54 minutes ago)
Wind
70° at 23 knots
 Gusting to 34 knots
Clouds
  • Broken at 3,300' AGL
  • Broken at 6,700' AGL
  • Broken at 13,000' AGL
Conditions
  • Light Freezing
  • Light Rain
Temperature Dewpoint
-1°C / 30°F -7°C / 19°F
Humidity Altimeter Pressure
64% 29.62" Hg 1003 hPa